createdAt,value
2023-05-22T00:00:37.378Z,10.23
2023-05-22T00:03:26.885Z,9.80
2023-05-22T00:06:16.021Z,10.13
2023-05-22T00:09:06.218Z,10.83
2023-05-22T00:11:55.397Z,10.10
2023-05-22T00:14:44.018Z,9.67
2023-05-22T00:17:34.328Z,9.17
2023-05-22T00:20:23.513Z,9.50
2023-05-22T00:23:13.916Z,9.70
2023-05-22T00:26:05.621Z,10.17
2023-05-22T00:28:54.285Z,11.17
2023-05-22T00:31:45.802Z,10.37
2023-05-22T00:34:34.694Z,9.33
2023-05-22T00:37:23.428Z,9.83
2023-05-22T00:40:13.468Z,10.20
2023-05-22T00:43:08.636Z,9.87
2023-05-22T00:45:58.011Z,10.60
2023-05-22T00:48:50.330Z,9.87
2023-05-22T00:51:40.247Z,9.90
2023-05-22T00:54:30.789Z,8.77
2023-05-22T00:57:20.748Z,8.13
2023-05-22T01:00:12.287Z,8.10
2023-05-22T01:03:01.578Z,7.20
2023-05-22T01:05:50.565Z,9.97
2023-05-22T01:08:39.687Z,9.37
2023-05-22T01:11:37.691Z,9.87
2023-05-22T01:14:34.551Z,10.13
2023-05-22T01:17:34.749Z,10.20
2023-05-22T01:20:31.510Z,9.40
2023-05-22T01:23:55.294Z,9.97
2023-05-22T01:26:54.965Z,10.07
2023-05-22T01:29:55.860Z,9.33
2023-05-22T01:32:48.106Z,10.07
2023-05-22T01:35:40.949Z,9.43
2023-05-22T01:38:31.810Z,9.37
2023-05-22T01:41:22.576Z,10.53
2023-05-22T01:44:11.285Z,11.07
2023-05-22T01:47:05.031Z,11.17
2023-05-22T01:49:55.273Z,9.77
2023-05-22T01:52:52.952Z,10.37
2023-05-22T01:55:47.579Z,10.20
2023-05-22T01:58:44.261Z,13.47
2023-05-22T02:01:35.323Z,10.13
2023-05-22T02:04:25.224Z,9.33
2023-05-22T02:07:16.871Z,11.10
2023-05-22T02:10:08.553Z,11.00
2023-05-22T02:12:59.119Z,10.07
2023-05-22T02:15:49.627Z,10.30
2023-05-22T02:18:41.999Z,9.87
2023-05-22T02:21:37.809Z,10.60
2023-05-22T02:24:30.548Z,8.37
2023-05-22T02:27:19.656Z,8.33
2023-05-22T02:30:09.585Z,9.17
2023-05-22T02:33:00.460Z,9.17
2023-05-22T02:35:49.263Z,9.70
2023-05-22T02:38:38.084Z,11.53
2023-05-22T02:41:28.548Z,9.67
2023-05-22T02:44:17.887Z,10.10
2023-05-22T02:47:07.225Z,8.57
2023-05-22T02:49:58.066Z,8.97
2023-05-22T02:52:46.875Z,9.97
2023-05-22T02:55:36.041Z,8.93
2023-05-22T02:58:26.217Z,8.13
2023-05-22T03:01:15.570Z,7.40
2023-05-22T03:04:04.449Z,10.13
2023-05-22T03:06:54.761Z,10.17
2023-05-22T03:09:43.572Z,9.50
2023-05-22T03:12:32.336Z,10.10
2023-05-22T03:15:23.471Z,9.97
2023-05-22T03:18:16.232Z,9.77
2023-05-22T03:21:06.710Z,10.60
2023-05-22T03:23:55.356Z,12.17
2023-05-22T03:26:44.099Z,18.10
2023-05-22T03:29:40.307Z,10.77
2023-05-22T03:32:30.417Z,10.17
2023-05-22T03:35:20.260Z,10.47
2023-05-22T03:38:09.048Z,10.33
2023-05-22T03:41:04.484Z,10.87
2023-05-22T03:43:53.287Z,13.80
2023-05-22T03:46:44.376Z,11.93
2023-05-22T03:49:34.542Z,11.03
2023-05-22T03:52:24.573Z,11.30
2023-05-22T03:55:13.644Z,10.87
2023-05-22T03:58:03.018Z,10.53
2023-05-22T04:00:52.553Z,11.30
2023-05-22T04:03:41.521Z,11.03
2023-05-22T04:06:34.290Z,11.37
2023-05-22T04:09:23.021Z,11.60
2023-05-22T04:12:12.760Z,11.20
2023-05-22T04:15:03.064Z,11.13
2023-05-22T04:17:52.642Z,11.70
2023-05-22T04:20:42.781Z,11.70
2023-05-22T04:23:32.837Z,11.23
2023-05-22T04:26:21.846Z,10.50
2023-05-22T04:29:14.409Z,11.20
2023-05-22T04:32:03.617Z,11.73
2023-05-22T04:34:52.300Z,12.07
2023-05-22T04:37:42.357Z,11.10
2023-05-22T04:40:33.772Z,13.00
2023-05-22T04:43:26.908Z,11.47
2023-05-22T04:46:16.606Z,12.37
2023-05-22T04:49:08.492Z,11.70
2023-05-22T04:51:58.387Z,12.17
2023-05-22T04:54:49.783Z,12.13
2023-05-22T04:57:40.241Z,12.60
2023-05-22T05:00:29.885Z,12.17
2023-05-22T05:03:19.217Z,13.27
2023-05-22T05:06:08.695Z,12.03
2023-05-22T05:08:59.051Z,13.20
2023-05-22T05:11:48.025Z,13.03
2023-05-22T05:14:38.265Z,13.70
2023-05-22T05:17:27.581Z,13.03
2023-05-22T05:20:16.398Z,12.37
2023-05-22T05:23:05.696Z,14.40
2023-05-22T05:25:55.362Z,13.03
2023-05-22T05:28:44.383Z,14.07
2023-05-22T05:31:34.583Z,13.13
2023-05-22T05:34:44.580Z,13.83
2023-05-22T05:37:43.472Z,14.07
2023-05-22T05:40:33.435Z,16.00
2023-05-22T05:43:23.311Z,14.87
2023-05-22T05:46:15.844Z,16.43
2023-05-22T05:49:11.202Z,14.57
2023-05-22T05:52:02.137Z,14.23
2023-05-22T05:54:52.048Z,14.10
2023-05-22T05:57:43.557Z,14.17
2023-05-22T06:00:39.190Z,13.67
2023-05-22T06:03:28.351Z,14.30
2023-05-22T06:06:39.391Z,13.53
2023-05-22T06:09:37.341Z,13.87
2023-05-22T06:12:44.921Z,14.10
2023-05-22T06:15:34.552Z,12.97
2023-05-22T06:18:25.549Z,13.20
2023-05-22T06:21:15.138Z,12.20
2023-05-22T06:24:06.103Z,12.60
2023-05-22T06:26:56.416Z,14.70
2023-05-22T06:29:45.341Z,12.63
2023-05-22T06:32:34.466Z,11.93
2023-05-22T06:35:24.413Z,12.40
2023-05-22T06:38:14.109Z,10.10
2023-05-22T06:41:06.143Z,10.97
2023-05-22T06:43:54.841Z,9.97
2023-05-22T06:46:49.984Z,10.90
2023-05-22T06:49:44.336Z,11.37
2023-05-22T06:52:33.879Z,11.17
2023-05-22T06:55:24.675Z,10.17
2023-05-22T06:58:25.747Z,10.23
2023-05-22T07:01:15.127Z,11.50
2023-05-22T07:04:13.476Z,11.07
2023-05-22T07:07:22.389Z,10.20
2023-05-22T07:10:12.441Z,11.13
2023-05-22T07:13:01.261Z,10.17
2023-05-22T07:15:52.584Z,10.33
2023-05-22T07:18:41.991Z,10.00
2023-05-22T07:21:31.955Z,10.57
2023-05-22T07:24:20.924Z,10.37
2023-05-22T07:27:12.677Z,9.87
2023-05-22T07:30:02.471Z,9.47
2023-05-22T07:32:55.265Z,10.50
2023-05-22T07:35:45.688Z,11.53
2023-05-22T07:38:34.822Z,9.80
2023-05-22T07:41:27.241Z,11.40
2023-05-22T07:44:16.499Z,10.27
2023-05-22T07:47:06.711Z,11.33
2023-05-22T07:49:58.099Z,11.83
2023-05-22T07:52:47.292Z,9.70
2023-05-22T07:55:36.366Z,10.90
2023-05-22T07:58:25.470Z,11.57
2023-05-22T08:01:15.562Z,13.13
2023-05-22T08:04:04.712Z,10.90
2023-05-22T08:06:55.061Z,11.03
2023-05-22T08:09:46.133Z,10.93
2023-05-22T08:12:34.950Z,12.13
2023-05-22T08:15:24.363Z,11.03
2023-05-22T08:18:13.778Z,11.50
2023-05-22T08:21:02.756Z,10.70
2023-05-22T08:23:52.846Z,11.30
2023-05-22T08:26:43.851Z,13.10
2023-05-22T08:29:32.622Z,10.40
2023-05-22T08:32:21.809Z,11.17
2023-05-22T08:35:11.559Z,13.17
2023-05-22T08:38:00.272Z,11.17
2023-05-22T08:40:50.803Z,10.67
2023-05-22T08:43:40.688Z,11.73
2023-05-22T08:46:31.807Z,10.70
2023-05-22T08:49:24.269Z,10.80
2023-05-22T08:52:17.943Z,11.47
2023-05-22T08:55:09.081Z,10.03
2023-05-22T08:57:59.857Z,9.63
2023-05-22T09:00:48.881Z,11.83
2023-05-22T09:03:38.815Z,11.33
2023-05-22T09:06:29.171Z,10.50
2023-05-22T09:09:18.362Z,10.83
2023-05-22T09:12:10.154Z,11.63
2023-05-22T09:15:09.865Z,10.40
2023-05-22T09:17:58.954Z,12.53
2023-05-22T09:20:47.973Z,11.73
2023-05-22T09:23:37.902Z,12.67
2023-05-22T09:26:29.455Z,13.67
2023-05-22T09:29:18.222Z,13.00
2023-05-22T09:32:15.180Z,14.00
2023-05-22T09:35:06.032Z,13.17
2023-05-22T09:37:57.313Z,14.67
2023-05-22T09:40:46.362Z,11.27
2023-05-22T09:43:35.145Z,12.40
2023-05-22T09:46:24.300Z,13.63
2023-05-22T09:49:16.741Z,12.97
2023-05-22T09:52:09.185Z,11.83
2023-05-22T09:54:59.694Z,13.03
2023-05-22T09:57:53.692Z,12.97
2023-05-22T10:00:44.452Z,12.33
2023-05-22T10:03:35.283Z,12.33
2023-05-22T10:06:27.484Z,11.73
2023-05-22T10:09:19.641Z,12.03
2023-05-22T10:12:16.263Z,11.57
2023-05-22T10:15:07.587Z,11.67
2023-05-22T10:17:58.077Z,11.63
2023-05-22T10:20:48.223Z,11.37
2023-05-22T10:23:39.546Z,10.80
2023-05-22T10:26:30.160Z,11.30
2023-05-22T10:29:26.713Z,12.30
2023-05-22T10:32:24.805Z,12.73
2023-05-22T10:35:21.873Z,13.40
2023-05-22T10:38:48.436Z,12.70
2023-05-22T10:41:37.352Z,11.40
2023-05-22T10:44:26.572Z,14.73
2023-05-22T10:47:16.040Z,11.93
2023-05-22T10:50:08.611Z,12.73
2023-05-22T10:53:23.650Z,10.93
2023-05-22T10:56:15.433Z,10.30
2023-05-22T10:59:07.318Z,9.77
2023-05-22T11:02:02.174Z,10.50
2023-05-22T11:04:52.054Z,13.00
2023-05-22T11:07:42.495Z,9.70
2023-05-22T11:10:56.521Z,10.77
2023-05-22T11:13:53.097Z,9.60
2023-05-22T11:16:41.880Z,9.97
2023-05-22T11:19:30.865Z,10.07
2023-05-22T11:22:20.302Z,10.07
2023-05-22T11:25:11.008Z,10.70
2023-05-22T11:28:00.171Z,10.33
2023-05-22T11:30:50.533Z,10.17
2023-05-22T11:33:40.190Z,10.20
2023-05-22T11:36:30.030Z,9.93
2023-05-22T11:39:18.855Z,11.00
2023-05-22T11:42:08.176Z,10.02
2023-05-22T11:44:57.374Z,10.57
2023-05-22T11:47:48.581Z,9.85
2023-05-22T11:50:42.402Z,9.18
2023-05-22T11:53:33.589Z,9.98
2023-05-22T11:56:23.358Z,9.00
2023-05-22T11:59:12.198Z,8.88
2023-05-22T12:02:00.984Z,8.73
2023-05-22T12:04:55.601Z,9.30
2023-05-22T12:07:44.562Z,9.98
2023-05-22T12:10:33.494Z,9.80
2023-05-22T12:13:26.289Z,10.50
2023-05-22T12:16:23.098Z,8.60
2023-05-22T12:19:12.842Z,8.48
2023-05-22T12:22:06.062Z,10.10
2023-05-22T12:24:55.618Z,9.55
2023-05-22T12:27:45.436Z,11.95
2023-05-22T12:30:42.165Z,10.45
2023-05-22T12:33:32.099Z,10.57
2023-05-22T12:36:20.835Z,9.38
2023-05-22T12:39:11.836Z,9.52
2023-05-22T12:42:00.712Z,9.90
2023-05-22T12:44:50.560Z,9.70
2023-05-22T12:47:39.406Z,8.85
2023-05-22T12:50:31.556Z,9.57
2023-05-22T12:53:20.848Z,9.52
2023-05-22T12:56:12.017Z,8.90
2023-05-22T12:59:00.846Z,10.43
2023-05-22T13:01:49.756Z,9.80
2023-05-22T13:04:38.752Z,9.52
2023-05-22T13:07:27.548Z,10.27
2023-05-22T13:10:16.443Z,9.55
2023-05-22T13:13:06.630Z,9.27
2023-05-22T13:15:56.005Z,8.90
2023-05-22T13:18:44.827Z,9.70
2023-05-22T13:21:33.585Z,8.93
2023-05-22T13:24:22.319Z,9.13
2023-05-22T13:27:11.071Z,8.80
2023-05-22T13:30:02.287Z,8.63
2023-05-22T13:32:50.987Z,9.32
2023-05-22T13:35:39.994Z,9.82
2023-05-22T13:38:28.915Z,9.25
2023-05-22T13:41:18.320Z,9.00
2023-05-22T13:44:07.436Z,10.02
2023-05-22T13:46:57.579Z,9.27
2023-05-22T13:49:49.958Z,8.77
2023-05-22T13:52:38.801Z,8.93
2023-05-22T13:55:27.458Z,8.70
2023-05-22T13:58:16.177Z,8.73
2023-05-22T14:01:05.029Z,8.27
2023-05-22T14:03:55.335Z,9.57
2023-05-22T14:06:44.484Z,9.07
2023-05-22T14:09:33.301Z,7.70
2023-05-22T14:12:21.934Z,8.02
2023-05-22T14:15:11.496Z,8.13
2023-05-22T14:18:00.275Z,10.25
2023-05-22T14:20:50.562Z,8.80
2023-05-22T14:23:39.243Z,9.05
2023-05-22T14:26:28.102Z,8.30
2023-05-22T14:29:16.994Z,8.50
2023-05-22T14:32:06.596Z,11.20
2023-05-22T14:34:55.254Z,8.20
2023-05-22T14:37:45.749Z,12.60
2023-05-22T14:40:34.489Z,8.93
2023-05-22T14:43:23.706Z,7.85
2023-05-22T14:46:12.694Z,8.35
2023-05-22T14:49:01.416Z,9.82
2023-05-22T14:51:50.273Z,8.27
2023-05-22T14:54:40.416Z,9.63
2023-05-22T14:57:29.118Z,8.18
2023-05-22T15:00:18.542Z,10.38
2023-05-22T15:03:07.431Z,10.73
2023-05-22T15:05:56.161Z,8.27
2023-05-22T15:08:44.929Z,8.57
2023-05-22T15:11:35.079Z,8.23
2023-05-22T15:14:24.030Z,9.40
2023-05-22T15:17:12.721Z,8.60
2023-05-22T15:20:01.420Z,10.40
2023-05-22T15:22:50.252Z,8.70
2023-05-22T15:25:39.211Z,18.60
2023-05-22T15:28:29.589Z,23.43
2023-05-22T15:31:18.586Z,14.33
2023-05-22T15:34:07.452Z,13.40
2023-05-22T15:36:56.562Z,13.30
2023-05-22T15:39:45.380Z,16.03
2023-05-22T15:42:34.152Z,11.33
2023-05-22T15:45:24.362Z,12.93
2023-05-22T15:48:13.234Z,11.50
2023-05-22T15:51:02.029Z,12.53
2023-05-22T15:53:51.344Z,11.37
2023-05-22T15:56:40.116Z,13.30
2023-05-22T15:59:29.069Z,14.30
2023-05-22T16:02:21.154Z,12.70
2023-05-22T16:05:10.540Z,11.73
2023-05-22T16:07:59.309Z,14.00
2023-05-22T16:10:49.517Z,15.07
2023-05-22T16:13:38.497Z,13.53
2023-05-22T16:16:27.438Z,13.33
2023-05-22T16:19:17.829Z,10.97
2023-05-22T16:22:06.865Z,12.93
2023-05-22T16:24:55.646Z,12.77
2023-05-22T16:27:44.398Z,10.20
2023-05-22T16:30:33.143Z,9.30
2023-05-22T16:33:22.072Z,8.50
2023-05-22T16:36:12.250Z,9.47
2023-05-22T16:39:00.993Z,8.63
2023-05-22T16:41:51.641Z,10.03
2023-05-22T16:44:42.333Z,10.13
2023-05-22T16:47:33.022Z,8.67
2023-05-22T16:50:22.268Z,10.77
2023-05-22T16:53:12.516Z,11.03
2023-05-22T16:56:01.340Z,8.63
2023-05-22T16:58:50.065Z,7.47
2023-05-22T17:01:39.106Z,9.03
2023-05-22T17:04:27.884Z,7.80
2023-05-22T17:07:16.678Z,9.73
2023-05-22T17:10:08.094Z,7.03
2023-05-22T17:12:56.934Z,9.00
2023-05-22T17:15:45.701Z,8.00
2023-05-22T17:18:34.491Z,8.13
2023-05-22T17:21:24.307Z,10.37
2023-05-22T17:24:14.894Z,8.83
2023-05-22T17:27:06.771Z,9.03
2023-05-22T17:29:55.516Z,8.30
2023-05-22T17:32:45.111Z,11.73
2023-05-22T17:35:33.840Z,9.10
2023-05-22T17:38:22.834Z,8.73
2023-05-22T17:41:12.364Z,8.87
2023-05-22T17:44:02.551Z,9.43
2023-05-22T17:46:51.231Z,9.40
2023-05-22T17:49:40.029Z,8.87
2023-05-22T17:52:28.778Z,8.33
2023-05-22T17:55:17.667Z,8.07
2023-05-22T17:58:06.310Z,10.20
2023-05-22T18:00:56.361Z,8.67
2023-05-22T18:03:45.321Z,9.27
2023-05-22T18:06:34.149Z,9.57
2023-05-22T18:09:22.893Z,8.40
2023-05-22T18:12:30.206Z,8.40
2023-05-22T18:15:20.158Z,7.63
2023-05-22T18:18:12.784Z,8.00
2023-05-22T18:21:02.827Z,8.40
2023-05-22T18:23:51.448Z,8.93
2023-05-22T18:26:41.149Z,7.30
2023-05-22T18:29:30.741Z,8.13
2023-05-22T18:32:19.576Z,8.00
2023-05-22T18:35:10.980Z,7.57
2023-05-22T18:38:00.232Z,10.33
2023-05-22T18:40:48.956Z,8.73
2023-05-22T18:43:37.803Z,9.87
2023-05-22T18:46:26.700Z,8.23
2023-05-22T18:49:15.413Z,9.43
2023-05-22T18:52:05.757Z,8.73
2023-05-22T18:54:54.450Z,9.43
2023-05-22T18:57:43.062Z,8.20
2023-05-22T19:00:31.795Z,8.37
2023-05-22T19:03:20.526Z,8.27
2023-05-22T19:06:09.314Z,8.50
2023-05-22T19:08:59.699Z,12.30
2023-05-22T19:11:48.319Z,8.87
2023-05-22T19:14:36.957Z,9.17
2023-05-22T19:17:26.130Z,8.57
2023-05-22T19:20:14.913Z,9.30
2023-05-22T19:23:03.997Z,8.33
2023-05-22T19:25:55.640Z,9.13
2023-05-22T19:28:44.503Z,8.97
2023-05-22T19:31:33.209Z,8.90
2023-05-22T19:34:22.080Z,8.90
2023-05-22T19:37:10.913Z,9.37
2023-05-22T19:39:59.583Z,9.57
2023-05-22T19:42:49.626Z,10.33
2023-05-22T19:45:38.759Z,11.03
2023-05-22T19:48:29.858Z,10.93
2023-05-22T19:51:18.659Z,9.60
2023-05-22T19:54:07.654Z,9.60
2023-05-22T19:56:56.357Z,10.30
2023-05-22T19:59:46.904Z,9.93
2023-05-22T20:02:36.215Z,10.57
2023-05-22T20:05:26.009Z,9.80
2023-05-22T20:08:15.084Z,9.90
2023-05-22T20:11:04.661Z,9.47
2023-05-22T20:13:54.528Z,10.50
2023-05-22T20:16:44.668Z,12.00
2023-05-22T20:19:34.554Z,9.93
2023-05-22T20:22:23.350Z,10.43
2023-05-22T20:25:12.044Z,12.37
2023-05-22T20:28:01.405Z,9.57
2023-05-22T20:30:51.109Z,10.50
2023-05-22T20:33:41.158Z,9.80
2023-05-22T20:36:30.032Z,10.10
2023-05-22T20:39:19.142Z,10.27
2023-05-22T20:42:08.227Z,8.97
2023-05-22T20:44:56.824Z,9.43
2023-05-22T20:47:45.820Z,12.07
2023-05-22T20:50:39.738Z,16.97
2023-05-22T20:53:28.696Z,8.93
2023-05-22T20:56:17.935Z,10.47
2023-05-22T20:59:07.249Z,9.57
2023-05-22T21:01:56.209Z,7.57
2023-05-22T21:04:45.502Z,8.00
2023-05-22T21:07:35.629Z,8.50
2023-05-22T21:10:25.430Z,9.13
2023-05-22T21:13:14.299Z,8.97
2023-05-22T21:16:03.005Z,9.73
2023-05-22T21:18:51.753Z,8.53
2023-05-22T21:21:41.864Z,11.17
2023-05-22T21:24:32.232Z,7.97
2023-05-22T21:27:20.920Z,8.83
2023-05-22T21:30:11.938Z,10.87
2023-05-22T21:33:01.220Z,8.70
2023-05-22T21:35:50.056Z,9.23
2023-05-22T21:38:38.838Z,11.07
2023-05-22T21:41:28.988Z,8.93
2023-05-22T21:44:18.524Z,9.33
2023-05-22T21:47:07.222Z,9.43
2023-05-22T21:49:56.293Z,9.70
2023-05-22T21:52:44.959Z,8.57
2023-05-22T21:55:35.402Z,9.20
2023-05-22T21:58:25.668Z,8.90
2023-05-22T22:01:14.417Z,9.50
2023-05-22T22:04:03.739Z,8.27
2023-05-22T22:06:52.481Z,10.30
2023-05-22T22:09:41.301Z,7.80
2023-05-22T22:12:30.062Z,9.13
2023-05-22T22:15:21.851Z,8.40
2023-05-22T22:18:14.990Z,8.07
2023-05-22T22:21:04.642Z,9.00
2023-05-22T22:23:53.465Z,10.07
2023-05-22T22:26:42.316Z,9.27
2023-05-22T22:29:31.050Z,9.40
2023-05-22T22:32:21.148Z,9.23
2023-05-22T22:35:11.171Z,9.90
2023-05-22T22:38:00.142Z,10.80
2023-05-22T22:40:48.868Z,8.90
2023-05-22T22:43:37.937Z,10.40
2023-05-22T22:46:27.505Z,9.20
2023-05-22T22:49:17.624Z,10.67
2023-05-22T22:52:07.655Z,10.63
2023-05-22T22:54:57.034Z,10.77
2023-05-22T22:57:47.908Z,11.83
2023-05-22T23:00:37.819Z,11.60
2023-05-22T23:03:27.248Z,13.93
2023-05-22T23:06:18.276Z,11.87
2023-05-22T23:09:07.032Z,13.17
2023-05-22T23:11:55.811Z,13.27
2023-05-22T23:14:44.919Z,16.20
2023-05-22T23:17:33.727Z,14.27
2023-05-22T23:20:22.511Z,15.57
2023-05-22T23:23:12.657Z,16.23
2023-05-22T23:26:01.448Z,16.83
2023-05-22T23:28:50.153Z,19.63
2023-05-22T23:31:40.455Z,30.93
2023-05-22T23:34:29.211Z,27.90
2023-05-22T23:37:18.428Z,34.93
2023-05-22T23:40:10.019Z,34.97
2023-05-22T23:42:58.731Z,29.63
2023-05-22T23:45:47.401Z,29.30
2023-05-22T23:48:36.106Z,32.97
2023-05-22T23:51:24.942Z,28.03
2023-05-22T23:54:13.859Z,24.67
2023-05-22T23:57:04.043Z,21.57
2023-05-22T23:59:53.214Z,21.47
